Time;durP1;ratioP1;P1;durP2;ratioP2;P2;SDS_P1;SDS_P2;PMS_P1;PMS_P2;Temp;Humidity;BMP_temperature;BMP_pressure;BME280_temperature;BME280_humidity;BME280_pressure;Samples;Min_cycle;Max_cycle;Signal;HPM_P1;HPM_P2
2022/01/25 00:24:32;;;;;;;52.63;6.45;;;;;;;5.93;100.00;102301.81;4923698;29;20435;-80
2022/01/25 00:27:05;;;;;;;53.70;7.05;;;;;;;5.88;100.00;102294.13;4901996;29;20035;-80
2022/01/25 00:32:05;;;;;;;40.88;5.38;;;;;;;5.93;100.00;102291.13;4918297;29;20032;-81
2022/01/25 00:34:31;;;;;;;48.92;6.70;;;;;;;5.93;100.00;102300.94;4903507;29;20434;-80
2022/01/25 00:36:56;;;;;;;45.53;5.57;;;;;;;5.74;100.00;102291.81;4871113;29;20359;-79
2022/01/25 00:39:21;;;;;;;44.67;5.72;;;;;;;5.85;100.00;102301.56;4919279;29;20032;-81
2022/01/25 00:41:47;;;;;;;48.72;6.50;;;;;;;5.84;100.00;102308.75;4903279;29;20040;-80
2022/01/25 00:44:13;;;;;;;48.47;5.45;;;;;;;5.82;100.00;102315.19;4902581;29;20372;-81
2022/01/25 00:46:38;;;;;;;51.03;6.82;;;;;;;5.77;100.00;102301.41;4887093;29;20028;-80
2022/01/25 00:49:04;;;;;;;43.40;6.13;;;;;;;5.82;100.00;102312.50;4919406;29;20028;-81
2022/01/25 00:54:26;;;;;;;36.50;5.55;;;;;;;5.78;100.00;102321.78;4919208;29;20050;-81
2022/01/25 00:56:52;;;;;;;35.88;5.22;;;;;;;5.74;100.00;102317.69;4902035;29;20031;-80
2022/01/25 00:59:22;;;;;;;32.63;4.45;;;;;;;5.52;100.00;102291.94;4918571;29;20035;-80
2022/01/25 01:01:50;;;;;;;28.13;4.93;;;;;;;5.73;100.00;102338.22;4901199;29;20083;-80
2022/01/25 01:04:17;;;;;;;31.85;4.70;;;;;;;5.73;100.00;102340.00;4919480;29;20103;-79
2022/01/25 01:06:45;;;;;;;34.10;5.25;;;;;;;5.69;100.00;102315.38;4886536;29;20073;-80
2022/01/25 01:09:11;;;;;;;31.88;4.60;;;;;;;5.79;100.00;102334.16;4901478;29;20098;-81
2022/01/25 01:11:48;;;;;;;33.90;4.97;;;;;;;5.78;100.00;102345.81;4918189;29;20032;-80
2022/01/25 01:14:25;;;;;;;46.22;5.07;;;;;;;5.73;100.00;102337.34;4901934;29;20039;-80
2022/01/25 01:28:51;;;;;;;35.55;4.93;;;;;;;5.74;100.00;102345.22;4902739;29;20054;-80
2022/01/25 01:43:55;;;;;;;38.83;5.63;;;;;;;5.41;100.00;102324.88;4918789;29;20039;-80
2022/01/25 01:51:21;;;;;;;38.80;5.35;;;;;;;5.34;100.00;102337.88;4917951;29;20370;-79
2022/01/25 01:53:47;;;;;;;37.58;4.20;;;;;;;5.32;100.00;102336.31;4917039;29;20040;-80
2022/01/25 01:56:13;;;;;;;39.30;3.83;;;;;;;5.28;100.00;102333.06;4917522;29;20040;-80
2022/01/25 01:58:39;;;;;;;34.53;4.40;;;;;;;5.29;100.00;102348.09;4901928;29;20032;-80
2022/01/25 02:01:10;;;;;;;34.22;4.95;;;;;;;5.21;100.00;102349.72;4900833;29;20367;-81
2022/01/25 02:03:35;;;;;;;35.28;4.20;;;;;;;4.66;100.00;102259.03;4917640;29;20028;-80
2022/01/25 02:06:01;;;;;;;39.00;4.65;;;;;;;5.19;100.00;102349.81;4899348;29;20175;-81
2022/01/25 02:08:26;;;;;;;36.50;4.20;;;;;;;5.13;100.00;102347.66;4901625;29;20047;-81
2022/01/25 02:10:52;;;;;;;37.92;4.03;;;;;;;4.96;100.00;102330.34;4918433;29;20036;-80
2022/01/25 02:13:17;;;;;;;31.80;4.53;;;;;;;5.03;100.00;102350.22;4902075;29;20461;-80
2022/01/25 02:15:48;;;;;;;32.13;4.07;;;;;;;4.87;100.00;102317.78;4901570;29;20028;-81
2022/01/25 02:23:44;;;;;;;37.95;4.78;;;;;;;4.88;100.00;102346.16;4918682;29;20485;-81
2022/01/25 02:26:13;;;;;;;33.40;3.65;;;;;;;4.83;100.00;102346.50;4918825;29;20481;-80
2022/01/25 02:28:41;;;;;;;34.75;3.70;;;;;;;4.65;100.00;102318.66;4900475;29;20107;-81
2022/01/25 02:31:09;;;;;;;37.38;3.75;;;;;;;4.80;100.00;102351.22;4884547;29;20367;-81
2022/01/25 02:33:35;;;;;;;24.98;3.40;;;;;;;4.71;100.00;102351.03;4917738;29;20058;-81
2022/01/25 02:36:05;;;;;;;31.45;3.60;;;;;;;4.63;100.00;102341.91;4883758;29;20043;-80
2022/01/25 02:38:32;;;;;;;29.30;4.13;;;;;;;4.64;100.00;102352.47;4918361;29;20034;-80
2022/01/25 02:40:59;;;;;;;26.85;3.80;;;;;;;4.58;100.00;102365.44;4916838;29;20036;-81
2022/01/25 02:43:25;;;;;;;39.38;4.00;;;;;;;4.61;100.00;102375.88;4915775;29;20091;-81
2022/01/25 02:49:02;;;;;;;31.75;3.60;;;;;;;4.38;100.00;102362.53;4848519;29;20125;-80
2022/01/25 02:51:46;;;;;;;41.40;3.58;;;;;;;4.36;100.00;102361.78;4936338;29;20012;-81
2022/01/25 02:54:13;;;;;;;37.85;3.38;;;;;;;4.34;100.00;102373.53;4918382;29;20360;-79
2022/01/25 02:56:42;;;;;;;28.80;3.22;;;;;;;4.14;100.00;102375.09;4916754;29;20051;-81
2022/01/25 02:59:09;;;;;;;29.38;2.70;;;;;;;4.29;100.00;102368.56;4901630;29;20027;-81
2022/01/25 03:01:35;;;;;;;34.97;3.05;;;;;;;4.27;100.00;102367.00;4917651;29;20074;-81
2022/01/25 03:04:02;;;;;;;23.98;2.55;;;;;;;4.30;100.00;102366.75;4918480;29;20032;-81
2022/01/25 03:06:28;;;;;;;23.15;2.70;;;;;;;4.32;100.00;102362.16;4916940;29;20032;-81
2022/01/25 03:08:53;;;;;;;23.75;3.28;;;;;;;4.36;100.00;102369.78;4900584;29;20032;-81
2022/01/25 03:11:22;;;;;;;28.15;2.70;;;;;;;4.35;100.00;102372.59;4900312;29;20044;-81
2022/01/25 03:13:55;;;;;;;25.02;2.40;;;;;;;4.31;100.00;102369.31;4901218;29;20063;-81
2022/01/25 03:16:38;;;;;;;23.73;2.70;;;;;;;4.29;100.00;102371.25;4901063;29;20474;-80
2022/01/25 03:19:30;;;;;;;23.80;2.30;;;;;;;4.24;100.00;102365.44;4916874;29;20359;-81
2022/01/25 03:21:53;;;;;;;17.23;2.05;;;;;;;4.25;100.00;102377.78;4917822;29;20028;-80
2022/01/25 03:24:18;;;;;;;22.50;2.92;;;;;;;4.22;100.00;102376.19;4870024;29;20408;-81
2022/01/25 03:26:44;;;;;;;26.70;2.75;;;;;;;4.26;100.00;102370.63;4901784;29;20119;-81
2022/01/25 03:29:09;;;;;;;20.55;2.42;;;;;;;4.33;100.00;102371.84;4901314;29;20111;-80
2022/01/25 03:31:34;;;;;;;22.38;2.38;;;;;;;4.38;100.00;102369.69;4902329;29;20454;-81
2022/01/25 03:34:00;;;;;;;18.60;2.80;;;;;;;4.38;100.00;102369.69;4917506;29;20052;-80
2022/01/25 03:36:26;;;;;;;27.48;2.42;;;;;;;4.44;100.00;102371.88;4918725;29;20028;-81
2022/01/25 03:38:52;;;;;;;21.85;2.45;;;;;;;4.47;100.00;102361.81;4916870;29;20019;-80
2022/01/25 03:41:18;;;;;;;27.50;2.30;;;;;;;4.41;100.00;102342.81;4919681;29;20032;-81
2022/01/25 03:43:51;;;;;;;19.88;2.25;;;;;;;4.48;100.00;102362.66;4885563;29;20040;-81
2022/01/25 03:46:27;;;;;;;22.90;2.75;;;;;;;4.41;100.00;102345.47;4916749;29;20024;-81
2022/01/25 03:51:36;;;;;;;21.33;2.30;;;;;;;4.41;100.00;102366.78;4915558;29;20054;-80
2022/01/25 03:54:02;;;;;;;21.20;2.47;;;;;;;4.41;100.00;102356.13;4900159;29;20036;-81
2022/01/25 03:56:28;;;;;;;17.23;2.38;;;;;;;4.31;100.00;102339.16;4885987;29;20096;-81
2022/01/25 03:58:53;;;;;;;26.08;2.83;;;;;;;4.34;100.00;102342.44;4900037;29;20407;-80
2022/01/25 04:01:19;;;;;;;25.60;3.22;;;;;;;4.42;100.00;102353.31;4900433;29;20056;-80
2022/01/25 04:03:56;;;;;;;19.50;2.47;;;;;;;4.47;100.00;102363.66;4921340;29;20095;-80
2022/01/25 04:06:23;;;;;;;19.92;2.30;;;;;;;4.44;100.00;102361.22;4903733;29;20032;-81
2022/01/25 04:08:49;;;;;;;20.13;2.33;;;;;;;4.42;100.00;102361.31;4905395;29;20028;-80
2022/01/25 04:11:15;;;;;;;23.15;3.00;;;;;;;4.35;100.00;102338.78;4903411;29;20363;-80
2022/01/25 04:13:40;;;;;;;26.95;2.55;;;;;;;4.35;100.00;102344.13;4922667;29;20036;-81
2022/01/25 04:16:13;;;;;;;24.83;2.47;;;;;;;4.42;100.00;102363.16;4904630;29;20032;-81
2022/01/25 04:18:56;;;;;;;24.83;2.85;;;;;;;4.27;100.00;102345.69;4891873;29;20032;-80
2022/01/25 04:26:44;;;;;;;;;;;;;;;4.35;100.00;102377.94;4905405;29;20047;-81
2022/01/25 04:29:10;;;;;;;19.58;2.15;;;;;;;4.23;100.00;102359.25;4920870;29;19920;-80
2022/01/25 04:31:36;;;;;;;21.65;2.25;;;;;;;4.28;100.00;102374.03;4919445;29;20059;-80
2022/01/25 04:34:25;;;;;;;18.17;2.15;;;;;;;4.31;100.00;102371.16;4887043;29;20052;-80
2022/01/25 04:55:42;;;;;;;19.75;1.80;;;;;;;4.22;100.00;102380.69;4901395;29;20044;-80
2022/01/25 04:58:15;;;;;;;16.65;2.47;;;;;;;4.27;100.00;102388.31;4901217;29;20459;-81
2022/01/25 05:00:40;;;;;;;19.20;1.95;;;;;;;4.26;100.00;102382.13;4919461;29;20347;-81
2022/01/25 05:03:12;;;;;;;24.80;2.47;;;;;;;4.26;100.00;102381.28;4918538;29;20042;-80
2022/01/25 05:05:52;;;;;;;15.20;2.05;;;;;;;4.19;100.00;102364.94;4920040;29;20529;-81
2022/01/25 05:08:33;;;;;;;21.23;2.30;;;;;;;4.27;100.00;102375.84;4902987;29;20356;-81
2022/01/25 05:11:46;;;;;;;21.42;1.90;;;;;;;4.18;100.00;102369.41;4903133;29;20044;-80
2022/01/25 05:13:51;;;;;;;18.73;2.58;;;;;;;4.27;100.00;102380.31;4907272;29;20044;-82
2022/01/25 05:16:32;;;;;;;26.33;1.95;;;;;;;4.26;100.00;102395.47;4873082;29;20036;-81
2022/01/25 05:19:23;;;;;;;17.83;1.90;;;;;;;4.24;100.00;102387.59;4918150;29;20028;-80
2022/01/25 05:24:29;;;;;;;21.58;2.15;;;;;;;4.24;100.00;102382.28;4911229;29;20108;-82
2022/01/25 05:26:54;;;;;;;21.27;2.53;;;;;;;4.19;100.00;102384.44;4932895;29;20047;-87
2022/01/25 05:29:21;;;;;;;20.70;2.00;;;;;;;4.19;100.00;102383.59;4917812;29;20029;-82
2022/01/25 05:31:47;;;;;;;20.67;2.10;;;;;;;4.15;100.00;102372.31;4913558;29;20032;-84
2022/01/25 05:34:12;;;;;;;19.73;2.17;;;;;;;4.15;100.00;102366.16;4910804;29;20066;-85
2022/01/25 05:36:39;;;;;;;20.27;2.40;;;;;;;4.14;100.00;102378.63;4908356;29;20486;-82
2022/01/25 05:39:20;;;;;;;25.98;2.50;;;;;;;4.16;100.00;102382.00;4897748;29;20038;-83
2022/01/25 05:41:54;;;;;;;25.33;2.85;;;;;;;4.17;100.00;102389.06;4929931;29;20449;-83
2022/01/25 05:47:04;;;;;;;14.38;1.85;;;;;;;4.21;100.00;102390.50;4927001;29;20039;-81
2022/01/25 05:49:30;;;;;;;;;;;;;;;4.23;100.00;102401.03;4913400;29;20079;-83
2022/01/25 05:51:55;;;;;;;21.33;2.00;;;;;;;4.24;100.00;102395.59;4912067;29;19910;-83
2022/01/25 05:54:21;;;;;;;21.17;2.80;;;;;;;4.10;100.00;102377.13;4928308;29;20031;-82
2022/01/25 05:56:46;;;;;;;21.02;2.40;;;;;;;4.15;100.00;102390.13;4907353;29;20047;-83
2022/01/25 05:59:11;;;;;;;21.90;2.33;;;;;;;4.04;100.00;102396.28;4877362;29;20036;-81
2022/01/25 06:01:37;;;;;;;24.52;2.00;;;;;;;3.95;100.00;102399.66;4908199;29;20064;-83
2022/01/25 06:04:03;;;;;;;20.40;2.38;;;;;;;3.73;100.00;102373.78;4889841;29;20039;-83
2022/01/25 06:06:29;;;;;;;19.45;2.40;;;;;;;3.79;100.00;102404.44;4912949;29;20474;-83
2022/01/25 06:08:56;;;;;;;19.63;2.25;;;;;;;3.68;100.00;102400.75;4901040;29;20754;-86
2022/01/25 06:11:22;;;;;;;20.92;1.98;;;;;;;3.59;100.00;102400.59;4908479;29;20033;-86
2022/01/25 06:13:47;;;;;;;25.25;2.20;;;;;;;3.60;100.00;102402.28;4933172;29;20048;-86
2022/01/25 06:16:13;;;;;;;19.67;2.47;;;;;;;3.56;100.00;102398.16;4912942;29;20028;-85
2022/01/25 06:18:39;;;;;;;26.75;2.50;;;;;;;3.54;100.00;102387.63;4909058;29;20492;-84
2022/01/25 06:21:04;;;;;;;19.30;2.22;;;;;;;3.63;100.00;102405.56;4895681;29;20043;-81
2022/01/25 06:23:30;;;;;;;24.70;2.63;;;;;;;3.44;100.00;102389.25;4898422;29;20081;-81
2022/01/25 06:25:55;;;;;;;28.40;2.58;;;;;;;3.37;100.00;102393.34;4874937;29;20064;-82
2022/01/25 06:28:20;;;;;;;29.38;2.45;;;;;;;3.25;100.00;102382.66;4875082;29;20051;-82
2022/01/25 06:30:46;;;;;;;22.00;2.53;;;;;;;3.19;100.00;102383.09;4908980;29;20225;-83
2022/01/25 06:33:12;;;;;;;16.33;2.28;;;;;;;3.31;100.00;102405.28;4909828;29;20071;-82
2022/01/25 06:35:37;;;;;;;21.85;2.47;;;;;;;3.39;100.00;102418.03;4876943;29;20036;-82
2022/01/25 06:38:03;;;;;;;25.50;2.40;;;;;;;3.21;100.00;102388.28;4924031;29;20035;-81
2022/01/25 06:40:28;;;;;;;21.25;2.72;;;;;;;3.40;100.00;102417.91;4889524;29;20028;-80
2022/01/25 06:42:54;;;;;;;29.85;2.72;;;;;;;3.45;100.00;102421.09;4911484;29;20036;-83
2022/01/25 06:45:22;;;;;;;21.67;2.35;;;;;;;3.48;100.00;102422.69;4896484;29;20031;-84
2022/01/25 06:47:49;;;;;;;25.77;3.97;;;;;;;3.49;100.00;102421.72;4908768;29;20082;-81
2022/01/25 06:50:17;;;;;;;26.30;2.65;;;;;;;3.40;100.00;102412.59;4904459;29;20032;-81
2022/01/25 06:52:43;;;;;;;20.52;2.30;;;;;;;3.48;100.00;102422.69;4900186;29;20025;-82
2022/01/25 06:55:11;;;;;;;24.63;2.50;;;;;;;3.38;100.00;102411.00;4918181;29;20028;-81
2022/01/25 06:57:37;;;;;;;28.05;2.92;;;;;;;3.46;100.00;102420.13;4920686;29;20027;-82
2022/01/25 07:00:16;;;;;;;27.23;1.98;;;;;;;3.43;100.00;102411.53;4921879;29;20039;-81
2022/01/25 07:02:42;;;;;;;19.73;2.13;;;;;;;3.57;100.00;102437.97;4909408;29;20035;-81
2022/01/25 07:05:09;;;;;;;25.17;2.72;;;;;;;3.35;100.00;102403.28;4899289;29;20042;-83
2022/01/25 07:07:36;;;;;;;25.05;2.80;;;;;;;3.64;100.00;102433.03;4887673;29;20036;-82
2022/01/25 07:10:02;;;;;;;23.55;2.58;;;;;;;3.74;100.00;102439.38;4901524;29;20044;-82
2022/01/25 07:12:27;;;;;;;17.33;2.30;;;;;;;3.70;100.00;102437.91;4891457;29;20043;-83
2022/01/25 07:14:53;;;;;;;24.80;3.50;;;;;;;3.69;100.00;102442.38;4908250;29;20043;-82
2022/01/25 07:17:19;;;;;;;31.70;3.33;;;;;;;3.72;100.00;102441.31;4908826;29;20636;-82
2022/01/25 07:19:44;;;;;;;24.92;2.30;;;;;;;3.70;100.00;102437.91;4908266;29;20031;-82
2022/01/25 07:22:09;;;;;;;21.90;2.58;;;;;;;3.65;100.00;102424.94;4924200;29;20052;-82
2022/01/25 07:24:35;;;;;;;26.30;2.55;;;;;;;3.59;100.00;102427.22;4925055;29;20039;-83
2022/01/25 07:27:00;;;;;;;22.90;2.72;;;;;;;3.61;100.00;102431.47;4891268;29;20051;-81
2022/01/25 07:29:27;;;;;;;21.52;3.03;;;;;;;3.65;100.00;102454.22;4891294;29;20100;-82
2022/01/25 07:31:53;;;;;;;24.23;2.95;;;;;;;3.34;100.00;102409.53;4905879;29;20052;-83
2022/01/25 07:34:18;;;;;;;31.55;2.78;;;;;;;3.46;100.00;102445.91;4905918;29;20538;-82
2022/01/25 07:36:44;;;;;;;30.33;3.08;;;;;;;3.59;100.00;102470.66;4925877;29;20024;-82
2022/01/25 07:39:10;;;;;;;36.00;3.13;;;;;;;3.58;100.00;102468.13;4910529;29;20024;-82
2022/01/25 07:41:39;;;;;;;18.52;2.58;;;;;;;3.46;100.00;102461.88;4928677;29;20036;-82
2022/01/25 07:44:06;;;;;;;31.48;2.47;;;;;;;3.40;100.00;102451.66;4909909;29;20063;-81
2022/01/25 07:46:32;;;;;;;27.42;2.30;;;;;;;3.43;100.00;102468.25;4929157;29;20043;-82
2022/01/25 07:48:58;;;;;;;24.23;2.55;;;;;;;3.42;100.00;102469.22;4929038;29;20032;-82
2022/01/25 07:51:28;;;;;;;22.77;2.50;;;;;;;3.45;100.00;102469.00;4929029;29;20052;-81
2022/01/25 07:53:54;;;;;;;33.20;2.70;;;;;;;3.48;100.00;102473.25;4910268;29;20036;-82
2022/01/25 07:56:20;;;;;;;30.15;3.00;;;;;;;3.49;100.00;102473.13;4912280;29;20038;-83
2022/01/25 07:58:46;;;;;;;34.67;3.53;;;;;;;3.51;100.00;102465.06;4926782;29;20108;-82
2022/01/25 08:01:12;;;;;;;29.80;3.28;;;;;;;3.55;100.00;102468.34;4911119;29;20032;-82
2022/01/25 08:03:38;;;;;;;24.75;3.63;;;;;;;3.40;100.00;102441.03;4927854;29;20100;-82
2022/01/25 08:06:04;;;;;;;29.33;2.83;;;;;;;3.54;100.00;102464.78;4910594;29;20032;-81
2022/01/25 08:08:30;;;;;;;30.17;3.38;;;;;;;3.64;100.00;102467.63;4912005;29;20324;-82
2022/01/25 08:10:55;;;;;;;23.77;2.25;;;;;;;3.45;100.00;102425.59;4910776;29;20039;-81
2022/01/25 08:13:21;;;;;;;19.48;2.55;;;;;;;3.68;100.00;102472.66;4912153;29;20059;-83
2022/01/25 08:15:46;;;;;;;31.70;2.85;;;;;;;3.64;100.00;102457.88;4910428;29;20039;-82
2022/01/25 08:18:11;;;;;;;27.63;2.70;;;;;;;3.81;100.00;102475.25;4927949;29;20119;-82
2022/01/25 08:20:37;;;;;;;28.35;3.20;;;;;;;3.85;100.00;102474.06;4910204;29;20070;-82
2022/01/25 08:23:02;;;;;;;27.48;3.03;;;;;;;3.82;100.00;102457.47;4895207;29;20036;-82
2022/01/25 08:25:28;;;;;;;24.40;3.35;;;;;;;3.78;100.00;102437.34;4925493;29;20103;-83
2022/01/25 08:27:53;;;;;;;26.38;3.05;;;;;;;3.74;100.00;102420.72;4926357;29;20036;-82
2022/01/25 08:30:19;;;;;;;27.80;3.22;;;;;;;3.91;100.00;102448.78;4910228;29;20126;-82
2022/01/25 08:32:44;;;;;;;18.23;2.65;;;;;;;3.78;100.00;102424.88;4926321;29;20047;-83
2022/01/25 08:35:10;;;;;;;25.25;2.65;;;;;;;4.02;100.00;102456.81;4902983;29;20161;-82
2022/01/25 08:37:36;;;;;;;24.52;2.75;;;;;;;4.13;100.00;102470.16;4891016;29;20028;-82
2022/01/25 08:40:04;;;;;;;26.17;2.70;;;;;;;3.90;100.00;102417.78;4895598;29;20115;-83
2022/01/25 08:42:29;;;;;;;25.13;3.40;;;;;;;4.24;100.00;102462.22;4927524;29;20032;-83
2022/01/25 08:44:54;;;;;;;21.65;2.70;;;;;;;4.05;100.00;102429.94;4895901;29;20036;-81
2022/01/25 08:47:20;;;;;;;30.30;3.05;;;;;;;4.14;100.00;102437.25;4908868;29;20443;-82
2022/01/25 08:49:46;;;;;;;17.88;2.40;;;;;;;4.35;100.00;102472.03;4908883;29;20024;-80
2022/01/25 08:52:11;;;;;;;26.17;3.03;;;;;;;4.47;100.00;102481.78;4908627;29;20040;-81
2022/01/25 08:54:36;;;;;;;26.83;2.90;;;;;;;4.49;100.00;102476.31;4924117;29;20032;-82
2022/01/25 08:57:03;;;;;;;23.80;3.15;;;;;;;4.54;100.00;102482.16;4906120;29;20051;-81
2022/01/25 08:59:29;;;;;;;25.92;2.83;;;;;;;4.58;100.00;102480.94;4906613;29;20043;-81
2022/01/25 09:01:54;;;;;;;24.85;2.83;;;;;;;4.00;100.00;102389.47;4922384;29;20040;-81
2022/01/25 09:04:19;;;;;;;22.77;3.85;;;;;;;4.48;100.00;102448.81;4881081;29;20044;-81
2022/01/25 09:06:45;;;;;;;29.77;2.67;;;;;;;4.57;100.00;102465.03;4877630;29;20023;-83
2022/01/25 09:09:10;;;;;;;22.40;2.70;;;;;;;4.59;100.00;102461.28;4908829;29;20038;-82
2022/01/25 09:11:37;;;;;;;24.92;3.28;;;;;;;4.74;100.00;102479.75;4924473;29;20028;-81
2022/01/25 09:14:03;;;;;;;34.97;3.58;;;;;;;4.70;100.00;102460.44;4924685;29;20036;-82
2022/01/25 09:16:29;;;;;;;23.23;2.53;;;;;;;4.64;100.00;102444.97;4907711;29;20478;-81
2022/01/25 09:18:54;;;;;;;30.15;3.15;;;;;;;4.79;100.00;102470.41;4893304;29;20032;-82
2022/01/25 09:21:19;;;;;;;28.25;4.32;;;;;;;4.91;100.00;102473.94;4908408;29;20040;-82
2022/01/25 09:23:45;;;;;;;29.08;2.92;;;;;;;4.86;100.00;102473.44;4926011;29;20590;-82
2022/01/25 09:26:10;;;;;;;25.92;3.00;;;;;;;4.98;100.00;102483.16;4888855;29;20043;-82
2022/01/25 09:28:36;;;;;;;26.88;2.70;;;;;;;5.02;100.00;102486.41;4906938;29;20406;-81
2022/01/25 09:31:01;;;;;;;24.92;2.95;;;;;;;4.95;100.00;102475.38;4905236;29;20021;-82
2022/01/25 09:33:27;;;;;;;16.23;2.33;;;;;;;4.99;100.00;102474.16;4906973;29;20074;-81
2022/01/25 09:35:56;;;;;;;19.58;2.80;;;;;;;5.16;100.00;102499.50;4908206;29;20501;-81
2022/01/25 09:38:22;;;;;;;23.75;3.20;;;;;;;5.21;100.00;102502.66;4925494;29;20422;-82
2022/01/25 09:40:48;;;;;;;25.25;2.90;;;;;;;4.88;100.00;102442.16;4923834;29;20074;-82
2022/01/25 09:43:15;;;;;;;18.88;2.45;;;;;;;5.30;100.00;102503.75;4923068;29;20040;-82
2022/01/25 09:45:40;;;;;;;22.35;2.72;;;;;;;5.19;100.00;102486.75;4906241;29;20032;-82
2022/01/25 09:48:09;;;;;;;21.45;2.60;;;;;;;5.35;100.00;102496.22;4921380;29;20100;-81
2022/01/25 09:50:37;;;;;;;24.30;2.60;;;;;;;5.29;100.00;102492.22;4922431;29;20098;-82
2022/01/25 09:53:04;;;;;;;21.85;2.50;;;;;;;5.32;100.00;102480.44;4926458;29;20079;-83
2022/01/25 09:55:32;;;;;;;27.08;2.70;;;;;;;5.46;100.00;102498.00;4909805;29;20024;-82
2022/01/25 09:57:58;;;;;;;21.15;2.22;;;;;;;5.15;100.00;102429.28;4911805;29;20418;-83
2022/01/25 10:00:26;;;;;;;22.60;2.88;;;;;;;5.53;100.00;102492.06;4906399;29;20099;-82
2022/01/25 10:03:19;;;;;;;20.83;2.95;;;;;;;5.46;100.00;102471.31;4907783;29;20046;-82
2022/01/25 10:05:48;;;;;;;20.23;2.95;;;;;;;5.53;100.00;102483.19;4905740;29;20040;-81
2022/01/25 10:08:26;;;;;;;19.40;2.72;;;;;;;5.27;100.00;102442.63;4923448;29;20060;-81
2022/01/25 10:10:59;;;;;;;27.35;2.72;;;;;;;5.54;100.00;102488.41;4921487;29;20076;-83
2022/01/25 10:13:37;;;;;;;24.98;3.10;;;;;;;5.48;100.00;102466.72;4907119;29;20588;-82
2022/01/25 10:16:08;;;;;;;16.90;2.65;;;;;;;5.69;100.00;102491.66;4910587;29;20050;-82
2022/01/25 10:18:41;;;;;;;16.70;2.72;;;;;;;5.70;100.00;102484.50;4924001;29;20052;-83
2022/01/25 10:21:24;;;;;;;28.90;3.25;;;;;;;5.51;100.00;102459.31;4909288;29;20036;-82
2022/01/25 10:24:00;;;;;;;21.38;2.40;;;;;;;5.68;100.00;102484.63;4912795;29;20093;-82
2022/01/25 10:26:25;;;;;;;26.40;2.67;;;;;;;5.70;100.00;102498.72;4924670;29;20385;-80
2022/01/25 10:28:51;;;;;;;17.38;2.13;;;;;;;5.72;100.00;102494.06;4920663;29;20132;-82
2022/01/25 10:31:17;;;;;;;27.80;2.80;;;;;;;5.70;100.00;102487.19;4923070;29;20055;-82
2022/01/25 10:33:51;;;;;;;29.88;3.28;;;;;;;5.70;100.00;102500.53;4909531;29;20478;-81
2022/01/25 10:36:19;;;;;;;22.73;3.38;;;;;;;5.80;100.00;102496.13;4926621;29;20035;-82
2022/01/25 10:38:47;;;;;;;24.02;2.70;;;;;;;5.75;100.00;102492.97;4922360;29;20058;-82
2022/01/25 10:41:18;;;;;;;21.63;2.22;;;;;;;5.82;100.00;102503.03;4907725;29;20370;-82
2022/01/25 10:43:46;;;;;;;20.42;2.33;;;;;;;5.79;100.00;102495.25;4922834;29;20415;-81
2022/01/25 10:46:17;;;;;;;20.83;3.03;;;;;;;5.88;100.00;102507.03;4924151;29;20028;-81
2022/01/25 10:48:49;;;;;;;19.90;2.55;;;;;;;5.94;100.00;102511.91;4904097;29;20028;-81
2022/01/25 10:51:21;;;;;;;24.60;3.25;;;;;;;5.87;100.00;102498.16;4922555;29;20035;-82
2022/01/25 10:54:10;;;;;;;26.08;2.92;;;;;;;5.92;100.00;102494.25;4904731;29;20028;-81
2022/01/25 10:56:36;;;;;;;27.48;3.42;;;;;;;6.02;100.00;102506.75;4926649;29;20028;-84
2022/01/25 10:59:04;;;;;;;19.27;2.75;;;;;;;6.04;100.00;102504.81;4933482;29;20019;-85
2022/01/25 11:01:35;;;;;;;20.33;2.80;;;;;;;6.01;100.00;102501.53;4920458;29;20046;-84
2022/01/25 11:04:13;;;;;;;27.80;3.35;;;;;;;5.99;100.00;102488.28;4912196;29;20032;-83
2022/01/25 11:06:39;;;;;;;20.10;2.88;;;;;;;5.98;100.00;102491.09;4904739;29;20101;-84
2022/01/25 11:09:07;;;;;;;20.33;3.45;;;;;;;6.04;100.00;102499.47;4899399;29;20040;-85
2022/01/25 11:11:41;;;;;;;24.48;2.65;;;;;;;5.81;100.00;102447.06;4912922;29;20047;-84
2022/01/25 11:16:53;;;;;;;17.42;3.75;;;;;;;6.08;100.00;102481.34;4929786;29;20063;-84
2022/01/25 11:19:22;;;;;;;28.48;3.05;;;;;;;6.03;100.00;102483.56;4910956;29;20077;-84
2022/01/25 11:21:49;;;;;;;29.40;2.90;;;;;;;6.10;100.00;102477.56;4923896;29;20035;-84
2022/01/25 11:24:16;;;;;;;18.48;2.42;;;;;;;6.13;100.00;102479.16;4912459;29;20481;-83
2022/01/25 11:26:43;;;;;;;24.20;2.72;;;;;;;6.17;100.00;102471.72;4908066;29;20031;-85
2022/01/25 11:29:09;;;;;;;22.77;2.90;;;;;;;6.16;100.00;102473.56;4899832;29;20020;-84
2022/01/25 11:31:37;;;;;;;16.42;2.40;;;;;;;6.10;100.00;102456.19;4946345;29;20027;-85
2022/01/25 11:34:07;;;;;;;21.38;2.40;;;;;;;6.14;100.00;102448.75;4934205;29;20116;-83
2022/01/25 11:36:45;;;;;;;18.48;2.58;;;;;;;6.16;100.00;102452.16;4912323;29;20071;-84
2022/01/25 11:39:11;;;;;;;16.88;2.80;;;;;;;6.06;100.00;102430.72;4931112;29;20078;-84
2022/01/25 11:41:40;;;;;;;18.35;2.55;;;;;;;6.28;100.00;102455.59;4929377;29;20028;-83
2022/01/25 11:44:11;;;;;;;20.33;2.75;;;;;;;6.28;100.00;102455.59;4926384;29;20080;-82
2022/01/25 11:46:40;;;;;;;20.38;2.83;;;;;;;6.24;100.00;102446.16;4912102;29;20099;-83
2022/01/25 11:49:10;;;;;;;29.50;2.67;;;;;;;6.33;100.00;102448.06;4924753;29;20056;-83
2022/01/25 11:51:36;;;;;;;21.65;2.53;;;;;;;6.33;100.00;102448.06;4908662;29;20036;-82
2022/01/25 11:54:04;;;;;;;17.88;2.40;;;;;;;6.37;100.00;102452.16;4905632;29;20032;-82
2022/01/25 11:56:30;;;;;;;18.20;2.78;;;;;;;6.33;100.00;102443.56;4925133;29;20023;-82
2022/01/25 11:58:58;;;;;;;23.48;2.65;;;;;;;6.29;100.00;102431.44;4907821;29;20036;-82
2022/01/25 12:01:26;;;;;;;20.05;2.95;;;;;;;6.29;100.00;102425.22;4908234;29;20435;-83
2022/01/25 12:04:00;;;;;;;26.90;3.92;;;;;;;6.26;99.86;102414.81;4906670;29;20368;-83
2022/01/25 12:06:34;;;;;;;22.02;2.83;;;;;;;6.26;100.00;102406.78;4923882;29;20028;-82
2022/01/25 12:11:48;;;;;;;16.85;2.00;;;;;;;6.28;100.00;102407.50;4924878;29;20032;-82
2022/01/25 12:14:22;;;;;;;20.42;2.75;;;;;;;6.47;100.00;102429.00;4923700;29;20032;-83
2022/01/25 12:16:55;;;;;;;21.85;2.70;;;;;;;6.49;100.00;102436.88;4925146;29;20058;-81
2022/01/25 12:19:36;;;;;;;15.63;2.15;;;;;;;6.47;100.00;102429.00;4923610;29;20400;-83
2022/01/25 12:22:06;;;;;;;23.30;2.72;;;;;;;6.47;100.00;102423.66;4923479;29;20025;-82
2022/01/25 12:25:03;;;;;;;20.50;2.35;;;;;;;6.45;100.00;102420.25;4917332;29;20023;-82
2022/01/25 12:27:54;;;;;;;17.25;2.35;;;;;;;6.44;100.00;102426.59;4926906;29;20038;-83
2022/01/25 12:30:30;;;;;;;19.25;1.95;;;;;;;6.44;100.00;102417.72;4927076;29;20016;-81
2022/01/25 12:33:02;;;;;;;23.63;2.30;;;;;;;6.42;100.00;102414.31;4911167;29;20035;-81
2022/01/25 12:35:40;;;;;;;22.88;2.22;;;;;;;6.28;100.00;102388.78;4924366;29;20035;-80
2022/01/25 12:38:16;;;;;;;17.58;2.40;;;;;;;6.38;100.00;102415.56;4915435;29;20040;-83
2022/01/25 12:40:48;;;;;;;16.70;2.55;;;;;;;6.39;100.00;102411.91;4907346;29;20028;-82
2022/01/25 12:43:18;;;;;;;22.63;3.10;;;;;;;6.31;100.00;102399.22;4909126;29;20028;-82
2022/01/25 12:45:59;;;;;;;19.33;2.42;;;;;;;6.37;100.00;102414.72;4920490;29;20073;-83
2022/01/25 12:48:29;;;;;;;22.67;2.40;;;;;;;6.35;100.00;102411.31;4922873;29;20028;-82
2022/01/25 12:50:58;;;;;;;20.02;2.53;;;;;;;6.18;100.00;102390.53;4908036;29;20347;-84
2022/01/25 12:53:26;;;;;;;16.92;2.78;;;;;;;6.17;100.00;102383.50;4906395;29;20024;-84
2022/01/25 12:55:55;;;;;;;22.98;2.85;;;;;;;6.32;100.00;102408.91;4912242;29;20039;-83
2022/01/25 12:58:23;;;;;;;21.85;2.83;;;;;;;6.31;100.00;102397.38;4914807;29;20039;-83
2022/01/25 13:00:50;;;;;;;21.83;2.58;;;;;;;6.33;100.00;102397.25;4914171;29;20020;-83
2022/01/25 13:03:18;;;;;;;14.95;1.70;;;;;;;6.31;100.00;102396.53;4894189;29;20035;-83
2022/01/25 13:06:06;;;;;;;18.65;2.33;;;;;;;6.30;100.00;102397.53;4909677;29;20032;-83
2022/01/25 13:08:34;;;;;;;23.40;2.38;;;;;;;6.23;100.00;102393.69;4906277;29;20032;-83